Time;durP1;ratioP1;P1;durP2;ratioP2;P2;SDS_P1;SDS_P2;PMS_P1;PMS_P2;Temp;Humidity;BMP_temperature;BMP_pressure;BME280_temperature;BME280_humidity;BME280_pressure;Samples;Min_cycle;Max_cycle;Signal;HPM_P1;HPM_P2
2022/08/22 00:01:09;;;;;;;4.20;2.33;;;;;;;;;;5097283;28;20260;-64
2022/08/22 00:03:43;;;;;;;6.27;2.40;;;;;;;;;;5085485;28;20215;-64
2022/08/22 00:06:23;;;;;;;3.50;2.10;;;;;;;;;;5073353;28;20701;-64
2022/08/22 00:09:11;;;;;;;3.20;2.17;;;;;;;;;;5084230;28;20190;-65
2022/08/22 00:12:03;;;;;;;5.03;2.43;;;;;;;;;;5082143;28;20579;-64
2022/08/22 00:14:45;;;;;;;5.07;2.70;;;;;;;;;;5077227;28;20209;-63
2022/08/22 00:17:33;;;;;;;4.20;2.13;;;;;;;;;;5094612;28;20189;-63
2022/08/22 00:20:13;;;;;;;4.40;2.40;;;;;;;;;;5077762;28;20218;-64
2022/08/22 00:22:58;;;;;;;5.43;2.03;;;;;;;;;;5076114;28;20546;-64
2022/08/22 00:26:01;;;;;;;4.50;2.20;;;;;;;;;;5067712;28;20232;-63
2022/08/22 00:28:39;;;;;;;4.57;2.37;;;;;;;;;;5084725;28;20193;-64
2022/08/22 00:31:26;;;;;;;4.63;2.30;;;;;;;;;;5089737;28;20203;-63
2022/08/22 00:34:04;;;;;;;3.80;1.80;;;;;;;;;;5090970;28;20201;-63
2022/08/22 00:36:53;;;;;;;4.33;2.40;;;;;;;;;;5070483;28;20215;-64
2022/08/22 00:39:46;;;;;;;5.23;2.40;;;;;;;;;;5077165;28;20242;-63
2022/08/22 00:42:35;;;;;;;4.20;2.40;;;;;;;;;;5084252;28;20204;-63
2022/08/22 00:45:28;;;;;;;6.37;2.90;;;;;;;;;;5084003;28;20622;-63
2022/08/22 00:48:15;;;;;;;5.13;2.93;;;;;;;;;;5084625;28;20197;-65
2022/08/22 00:51:04;;;;;;;6.30;3.20;;;;;;;;;;5078532;28;20189;-67
2022/08/22 00:53:43;;;;;;;5.10;3.20;;;;;;;;;;5070179;28;20189;-65
2022/08/22 00:56:32;;;;;;;6.37;4.00;;;;;;;;;;5057389;28;20205;-65
2022/08/22 00:59:26;;;;;;;5.87;2.90;;;;;;;;;;5081913;28;20225;-67
2022/08/22 01:02:02;;;;;;;5.03;3.37;;;;;;;;;;5076139;28;20319;-65
2022/08/22 01:04:52;;;;;;;5.63;3.67;;;;;;;;;;5085161;28;20263;-65
2022/08/22 01:07:42;;;;;;;8.33;4.40;;;;;;;;;;5060021;28;20192;-65
2022/08/22 01:10:20;;;;;;;7.33;4.17;;;;;;;;;;5081736;28;20216;-65
2022/08/22 01:12:59;;;;;;;8.57;4.77;;;;;;;;;;5084913;28;20216;-65
2022/08/22 01:15:32;;;;;;;7.93;5.00;;;;;;;;;;5090086;28;20286;-65
2022/08/22 01:18:18;;;;;;;7.00;4.93;;;;;;;;;;5093495;28;20221;-64
2022/08/22 01:21:07;;;;;;;8.40;4.43;;;;;;;;;;5046403;28;20196;-64
2022/08/22 01:24:08;;;;;;;6.03;4.47;;;;;;;;;;5071345;28;20197;-64
2022/08/22 01:26:38;;;;;;;8.80;4.83;;;;;;;;;;5080470;28;20205;-65
2022/08/22 01:29:29;;;;;;;7.37;4.60;;;;;;;;;;5083925;28;20266;-64
2022/08/22 01:32:16;;;;;;;7.83;5.00;;;;;;;;;;5057726;28;20574;-64
2022/08/22 01:34:55;;;;;;;7.73;4.73;;;;;;;;;;5088948;28;20508;-64
2022/08/22 01:37:37;;;;;;;8.00;4.33;;;;;;;;;;5088702;28;20192;-64
2022/08/22 01:40:29;;;;;;;6.63;4.30;;;;;;;;;;5067050;28;20213;-64
2022/08/22 01:43:20;;;;;;;7.30;4.50;;;;;;;;;;5079005;28;20735;-64
2022/08/22 01:46:32;;;;;;;6.60;4.27;;;;;;;;;;5079139;28;20221;-64
2022/08/22 01:49:18;;;;;;;5.87;4.07;;;;;;;;;;5085274;28;20204;-64
2022/08/22 01:51:53;;;;;;;6.27;4.00;;;;;;;;;;5082485;28;20227;-64
2022/08/22 01:54:44;;;;;;;7.23;4.17;;;;;;;;;;5083863;28;20249;-64
2022/08/22 01:57:13;;;;;;;5.93;4.10;;;;;;;;;;5084218;28;20185;-64
2022/08/22 01:59:47;;;;;;;12.33;3.70;;;;;;;;;;5077630;28;20224;-64
2022/08/22 02:02:35;;;;;;;8.23;3.67;;;;;;;;;;5058944;28;20732;-64
2022/08/22 02:05:30;;;;;;;7.87;4.10;;;;;;;;;;5069073;28;20198;-64
2022/08/22 02:08:19;;;;;;;5.63;3.80;;;;;;;;;;5050448;28;20190;-65
2022/08/22 02:11:02;;;;;;;5.93;3.17;;;;;;;;;;5056229;28;20193;-64
2022/08/22 02:13:33;;;;;;;4.83;3.60;;;;;;;;;;5059308;28;20235;-64
2022/08/22 02:16:06;;;;;;;6.13;3.57;;;;;;;;;;5061301;28;20212;-64
2022/08/22 02:18:53;;;;;;;5.73;3.37;;;;;;;;;;5066483;28;20205;-64
2022/08/22 02:21:48;;;;;;;4.23;3.03;;;;;;;;;;5054213;28;20235;-64
2022/08/22 02:24:23;;;;;;;4.87;3.10;;;;;;;;;;5048335;28;20193;-64
2022/08/22 02:27:18;;;;;;;9.63;3.17;;;;;;;;;;5046060;28;20217;-64
2022/08/22 02:30:13;;;;;;;5.73;2.93;;;;;;;;;;5055398;28;20399;-64
2022/08/22 02:32:41;;;;;;;6.07;3.10;;;;;;;;;;5061237;28;20213;-65
2022/08/22 02:35:13;;;;;;;6.77;3.10;;;;;;;;;;5059107;28;20202;-64
2022/08/22 02:37:57;;;;;;;5.60;3.07;;;;;;;;;;5059036;28;20197;-64
2022/08/22 02:40:44;;;;;;;4.40;2.80;;;;;;;;;;5043166;28;20304;-64
2022/08/22 02:43:31;;;;;;;4.57;2.70;;;;;;;;;;5059699;28;20216;-64
2022/08/22 02:46:17;;;;;;;6.90;2.83;;;;;;;;;;5043356;28;20196;-64
2022/08/22 02:49:03;;;;;;;5.30;2.67;;;;;;;;;;5065888;28;20427;-65
2022/08/22 02:51:50;;;;;;;4.93;3.20;;;;;;;;;;5053333;28;20217;-64
2022/08/22 02:54:38;;;;;;;4.40;2.67;;;;;;;;;;5052277;28;20190;-64
2022/08/22 02:57:11;;;;;;;4.63;2.50;;;;;;;;;;5064049;28;20193;-64
2022/08/22 03:00:07;;;;;;;3.10;2.63;;;;;;;;;;5046994;28;20217;-64
2022/08/22 03:03:16;;;;;;;3.73;2.40;;;;;;;;;;5061375;28;20218;-64
2022/08/22 03:05:57;;;;;;;4.37;2.97;;;;;;;;;;5062565;28;20536;-64
2022/08/22 03:08:49;;;;;;;5.27;2.70;;;;;;;;;;5059033;28;20579;-64
2022/08/22 03:11:33;;;;;;;2.83;2.13;;;;;;;;;;5060216;28;20200;-64
2022/08/22 03:14:15;;;;;;;3.13;2.33;;;;;;;;;;5062338;28;20272;-64
2022/08/22 03:17:01;;;;;;;3.67;2.77;;;;;;;;;;5066103;28;20196;-64
2022/08/22 03:19:49;;;;;;;6.60;2.90;;;;;;;;;;5044108;28;20762;-64
2022/08/22 03:22:36;;;;;;;5.53;2.83;;;;;;;;;;5058203;28;20205;-65
2022/08/22 03:25:23;;;;;;;6.57;2.40;;;;;;;;;;5054825;28;20600;-64
2022/08/22 03:28:06;;;;;;;4.13;2.30;;;;;;;;;;5059797;28;20205;-64
2022/08/22 03:30:55;;;;;;;4.10;2.30;;;;;;;;;;5061801;28;20205;-64
2022/08/22 03:33:30;;;;;;;4.30;2.60;;;;;;;;;;5056991;28;20300;-64
2022/08/22 03:36:15;;;;;;;4.13;2.63;;;;;;;;;;5070833;28;20198;-64
2022/08/22 03:38:49;;;;;;;3.30;2.50;;;;;;;;;;5066476;28;20236;-64
2022/08/22 03:41:37;;;;;;;4.20;2.47;;;;;;;;;;5061365;28;20255;-64
2022/08/22 03:44:24;;;;;;;4.33;2.73;;;;;;;;;;5048963;28;20196;-64
2022/08/22 03:47:15;;;;;;;4.43;2.17;;;;;;;;;;5059318;28;20670;-64
2022/08/22 03:50:03;;;;;;;5.00;2.63;;;;;;;;;;5082730;28;20189;-64
2022/08/22 03:53:24;;;;;;;5.47;2.73;;;;;;;;;;5056954;28;20241;-64
2022/08/22 03:56:05;;;;;;;5.50;2.60;;;;;;;;;;5053367;28;20206;-64
2022/08/22 03:58:41;;;;;;;3.00;2.23;;;;;;;;;;5069892;28;20268;-63
2022/08/22 04:01:28;;;;;;;4.47;2.83;;;;;;;;;;5064040;28;20225;-64
2022/08/22 04:04:13;;;;;;;2.83;1.83;;;;;;;;;;5058095;28;20627;-64
2022/08/22 04:07:02;;;;;;;3.87;2.30;;;;;;;;;;5070504;28;20205;-64
2022/08/22 04:10:14;;;;;;;4.70;2.40;;;;;;;;;;5046463;28;20209;-64
2022/08/22 04:13:03;;;;;;;3.60;2.17;;;;;;;;;;5063322;28;20588;-64
2022/08/22 04:15:45;;;;;;;3.97;2.40;;;;;;;;;;5062579;28;20205;-64
2022/08/22 04:18:46;;;;;;;6.03;2.77;;;;;;;;;;5067343;28;20194;-64
2022/08/22 04:21:32;;;;;;;4.30;2.03;;;;;;;;;;5072093;28;20193;-66
2022/08/22 04:24:04;;;;;;;5.07;2.63;;;;;;;;;;5061341;28;20204;-66
2022/08/22 04:26:57;;;;;;;3.40;1.97;;;;;;;;;;5069292;28;20593;-65
2022/08/22 04:29:50;;;;;;;8.77;2.27;;;;;;;;;;5061614;28;20229;-67
2022/08/22 04:32:45;;;;;;;3.73;2.00;;;;;;;;;;5051194;28;20194;-66
2022/08/22 04:35:47;;;;;;;4.77;2.53;;;;;;;;;;5054269;28;20655;-64
2022/08/22 04:38:30;;;;;;;4.37;2.43;;;;;;;;;;5021641;28;20213;-64
2022/08/22 04:41:03;;;;;;;5.93;2.50;;;;;;;;;;5063368;28;20196;-65
2022/08/22 04:43:37;;;;;;;3.50;2.23;;;;;;;;;;5050551;28;20558;-65
2022/08/22 04:46:17;;;;;;;3.07;2.27;;;;;;;;;;5066300;28;20198;-64
2022/08/22 04:48:56;;;;;;;3.43;2.30;;;;;;;;;;5068829;28;20186;-64
2022/08/22 04:51:31;;;;;;;4.50;2.17;;;;;;;;;;5062687;28;20304;-64
2022/08/22 04:54:13;;;;;;;2.90;2.10;;;;;;;;;;5070547;28;20220;-64
2022/08/22 04:57:03;;;;;;;3.93;2.27;;;;;;;;;;5065987;28;20197;-66
2022/08/22 04:59:36;;;;;;;3.10;2.00;;;;;;;;;;5065189;28;20233;-66
2022/08/22 05:02:13;;;;;;;3.97;2.20;;;;;;;;;;5048938;28;20322;-64
2022/08/22 05:04:55;;;;;;;3.43;2.07;;;;;;;;;;5031608;28;20612;-64
2022/08/22 05:07:28;;;;;;;4.40;2.57;;;;;;;;;;5032741;28;20186;-64
2022/08/22 05:10:10;;;;;;;4.70;2.20;;;;;;;;;;5046585;28;20194;-64
2022/08/22 05:12:59;;;;;;;5.33;2.77;;;;;;;;;;5036886;28;20222;-63
2022/08/22 05:15:41;;;;;;;4.50;2.57;;;;;;;;;;5032317;28;20229;-64
2022/08/22 05:18:18;;;;;;;4.63;2.30;;;;;;;;;;5044478;28;20601;-64
2022/08/22 05:20:51;;;;;;;6.60;2.63;;;;;;;;;;5031490;28;20219;-64
2022/08/22 05:23:29;;;;;;;5.93;3.00;;;;;;;;;;5026508;28;20289;-64
2022/08/22 05:26:01;;;;;;;5.23;3.03;;;;;;;;;;5033090;28;20550;-64
2022/08/22 05:28:33;;;;;;;3.57;2.00;;;;;;;;;;5021544;28;20214;-64
2022/08/22 05:31:07;;;;;;;8.73;3.07;;;;;;;;;;5047987;28;20206;-64
2022/08/22 05:33:44;;;;;;;5.90;2.47;;;;;;;;;;5019805;28;20204;-64
2022/08/22 05:36:29;;;;;;;6.43;2.97;;;;;;;;;;5022621;28;20199;-66
2022/08/22 05:39:08;;;;;;;7.97;2.93;;;;;;;;;;5043874;28;20206;-66
2022/08/22 05:41:39;;;;;;;9.43;3.40;;;;;;;;;;5029610;28;20198;-64
2022/08/22 05:44:29;;;;;;;5.50;2.80;;;;;;;;;;5045169;28;20205;-63
2022/08/22 05:46:57;;;;;;;4.70;2.53;;;;;;;;;;5047772;28;20193;-63
2022/08/22 05:49:33;;;;;;;6.53;3.13;;;;;;;;;;5053806;28;20190;-64
2022/08/22 05:52:20;;;;;;;5.67;3.07;;;;;;;;;;5041258;28;20221;-64
2022/08/22 05:54:56;;;;;;;10.80;3.73;;;;;;;;;;5031633;28;20531;-64
2022/08/22 05:57:27;;;;;;;10.00;3.37;;;;;;;;;;5041425;28;20201;-64
2022/08/22 06:00:09;;;;;;;5.67;3.30;;;;;;;;;;5037183;28;20211;-64
2022/08/22 06:02:50;;;;;;;5.47;3.37;;;;;;;;;;5061820;28;20658;-64
2022/08/22 06:05:30;;;;;;;7.23;3.57;;;;;;;;;;5090164;28;20192;-64
2022/08/22 06:08:08;;;;;;;8.40;3.60;;;;;;;;;;5068854;28;20205;-66
2022/08/22 06:10:41;;;;;;;9.97;3.60;;;;;;;;;;5087772;28;20209;-64
2022/08/22 06:13:34;;;;;;;7.53;3.27;;;;;;;;;;5081538;28;20547;-63
2022/08/22 06:16:15;;;;;;;6.07;3.13;;;;;;;;;;5078903;28;20208;-66
2022/08/22 06:18:48;;;;;;;5.67;3.43;;;;;;;;;;5086924;28;20205;-66
2022/08/22 06:21:31;;;;;;;5.67;3.30;;;;;;;;;;5087402;28;20207;-64
2022/08/22 06:24:08;;;;;;;8.97;3.70;;;;;;;;;;5065103;28;20188;-64
2022/08/22 06:26:51;;;;;;;13.20;5.60;;;;;;;;;;5065859;28;20213;-64
2022/08/22 06:29:37;;;;;;;7.17;4.00;;;;;;;;;;5070184;28;20552;-64
2022/08/22 06:32:13;;;;;;;8.23;4.57;;;;;;;;;;5083855;28;20200;-64
2022/08/22 06:35:14;;;;;;;11.57;5.03;;;;;;;;;;5071970;28;20189;-64
2022/08/22 06:38:01;;;;;;;9.77;4.37;;;;;;;;;;5084336;28;20224;-64
2022/08/22 06:40:34;;;;;;;6.43;4.50;;;;;;;;;;5081464;28;20229;-65
2022/08/22 06:43:05;;;;;;;7.17;3.97;;;;;;;;;;5085707;28;20184;-66
2022/08/22 06:45:37;;;;;;;7.97;4.67;;;;;;;;;;5069978;28;20198;-64
2022/08/22 06:48:07;;;;;;;9.73;4.97;;;;;;;;;;5076501;28;20912;-65
2022/08/22 06:50:40;;;;;;;10.60;4.30;;;;;;;;;;5075281;28;20215;-67
2022/08/22 06:53:18;;;;;;;11.47;5.77;;;;;;;;;;5061627;28;20216;-66
2022/08/22 06:55:50;;;;;;;10.97;5.80;;;;;;;;;;5070477;28;20226;-66
2022/08/22 06:58:31;;;;;;;8.87;5.67;;;;;;;;;;5075748;28;20193;-66
2022/08/22 07:01:19;;;;;;;8.93;4.70;;;;;;;;;;5071890;28;20241;-70
2022/08/22 07:04:00;;;;;;;12.07;4.67;;;;;;;;;;5086178;28;20349;-73
2022/08/22 07:06:35;;;;;;;7.47;3.87;;;;;;;;;;5074688;28;20215;-71
2022/08/22 07:09:06;;;;;;;7.27;4.10;;;;;;;;;;5088654;28;20267;-71
2022/08/22 07:11:40;;;;;;;5.77;3.33;;;;;;;;;;5053709;28;20193;-70
2022/08/22 07:14:15;;;;;;;5.27;3.50;;;;;;;;;;5089553;28;20189;-71
2022/08/22 07:17:07;;;;;;;6.17;3.90;;;;;;;;;;5092721;28;20220;-71
2022/08/22 07:19:38;;;;;;;6.70;3.63;;;;;;;;;;5067328;28;20209;-71
2022/08/22 07:22:29;;;;;;;5.77;3.60;;;;;;;;;;5078418;28;20197;-70
2022/08/22 07:25:23;;;;;;;7.17;3.93;;;;;;;;;;5068180;28;20193;-71
2022/08/22 07:27:59;;;;;;;6.23;3.70;;;;;;;;;;5071544;28;20218;-71
2022/08/22 07:30:56;;;;;;;7.13;4.17;;;;;;;;;;5077671;28;20205;-71
2022/08/22 07:33:46;;;;;;;6.70;3.80;;;;;;;;;;5074882;28;20715;-69
2022/08/22 07:36:35;;;;;;;6.47;3.90;;;;;;;;;;5088934;28;20210;-74
2022/08/22 07:39:12;;;;;;;6.77;3.87;;;;;;;;;;5077004;28;20212;-70
2022/08/22 07:42:01;;;;;;;6.67;3.20;;;;;;;;;;5097228;28;20276;-69
2022/08/22 07:44:47;;;;;;;6.90;4.40;;;;;;;;;;5072411;28;20276;-71
2022/08/22 07:47:21;;;;;;;8.27;4.00;;;;;;;;;;5069685;28;20542;-70
2022/08/22 07:50:02;;;;;;;6.93;4.20;;;;;;;;;;5073557;28;20212;-71
2022/08/22 07:52:41;;;;;;;9.03;4.40;;;;;;;;;;5043660;28;20215;-70
2022/08/22 07:55:22;;;;;;;8.00;4.20;;;;;;;;;;5062679;28;20207;-71
2022/08/22 07:57:54;;;;;;;9.40;3.80;;;;;;;;;;5065240;28;20188;-69
2022/08/22 08:00:25;;;;;;;5.97;3.40;;;;;;;;;;5075105;28;20229;-69
2022/08/22 08:03:01;;;;;;;6.47;3.73;;;;;;;;;;5078126;28;20225;-69
2022/08/22 08:05:35;;;;;;;9.90;4.20;;;;;;;;;;5083545;28;20196;-69
2022/08/22 08:08:14;;;;;;;7.03;3.50;;;;;;;;;;5080999;28;20183;-70
2022/08/22 08:10:47;;;;;;;6.77;3.40;;;;;;;;;;5086283;28;20197;-69
2022/08/22 08:13:20;;;;;;;8.23;3.83;;;;;;;;;;5081552;28;20205;-71
2022/08/22 08:15:50;;;;;;;10.27;4.00;;;;;;;;;;5062200;28;20720;-70
2022/08/22 08:18:24;;;;;;;7.83;4.17;;;;;;;;;;5073222;28;20654;-65
2022/08/22 08:20:58;;;;;;;5.43;3.47;;;;;;;;;;5081948;28;20796;-68
2022/08/22 08:23:36;;;;;;;9.23;3.70;;;;;;;;;;5086830;28;20232;-68
2022/08/22 08:26:18;;;;;;;7.20;3.80;;;;;;;;;;5059448;28;20213;-71
2022/08/22 08:28:50;;;;;;;4.97;3.80;;;;;;;;;;5071201;28;20200;-70
2022/08/22 08:31:45;;;;;;;6.43;3.60;;;;;;;;;;5081395;28;20244;-69
2022/08/22 08:34:21;;;;;;;6.37;3.00;;;;;;;;;;5078398;28;20267;-70
2022/08/22 08:37:04;;;;;;;7.37;3.60;;;;;;;;;;5079367;28;20200;-70
2022/08/22 08:39:44;;;;;;;5.37;3.50;;;;;;;;;;5078229;28;20209;-69
2022/08/22 08:45:44;;;;;;;4.70;3.50;;;;;;;;;;5065733;28;20194;-69
2022/08/22 08:48:34;;;;;;;6.10;3.57;;;;;;;;;;5074556;28;20190;-69
2022/08/22 08:51:24;;;;;;;5.73;3.37;;;;;;;;;;5078640;28;20214;-65
2022/08/22 08:54:11;;;;;;;7.60;4.87;;;;;;;;;;5075603;28;20196;-63
2022/08/22 08:56:52;;;;;;;10.27;4.10;;;;;;;;;;5079279;28;20684;-67
2022/08/22 08:59:32;;;;;;;13.83;4.87;;;;;;;;;;5090993;28;20302;-70
2022/08/22 09:02:46;;;;;;;9.63;4.70;;;;;;;;;;5089003;28;20263;-70
2022/08/22 09:05:41;;;;;;;9.37;4.27;;;;;;;;;;5074773;28;20212;-69
2022/08/22 09:08:35;;;;;;;7.57;4.50;;;;;;;;;;5067510;28;20204;-68
2022/08/22 09:11:24;;;;;;;7.30;4.20;;;;;;;;;;5088409;28;20228;-66
2022/08/22 09:14:12;;;;;;;6.10;4.40;;;;;;;;;;5083780;28;20599;-68
2022/08/22 09:17:00;;;;;;;10.23;4.33;;;;;;;;;;5082013;28;20221;-68
2022/08/22 09:19:53;;;;;;;7.13;4.10;;;;;;;;;;5088664;28;20294;-67
2022/08/22 09:22:40;;;;;;;8.03;4.13;;;;;;;;;;5065741;28;20660;-68
2022/08/22 09:25:30;;;;;;;5.07;3.70;;;;;;;;;;5081000;28;22020;-69
2022/08/22 09:28:17;;;;;;;7.33;3.90;;;;;;;;;;5059928;28;20229;-70
2022/08/22 09:31:02;;;;;;;7.73;3.30;;;;;;;;;;5088832;28;20197;-70
2022/08/22 09:34:04;;;;;;;9.33;3.77;;;;;;;;;;5085761;28;20526;-71
2022/08/22 09:37:15;;;;;;;5.60;3.27;;;;;;;;;;5069389;28;20193;-71
2022/08/22 09:40:16;;;;;;;6.23;3.57;;;;;;;;;;4981593;28;20290;-71
2022/08/22 09:42:55;;;;;;;7.37;4.00;;;;;;;;;;4983687;28;20208;-71
2022/08/22 09:45:28;;;;;;;7.20;3.60;;;;;;;;;;4986693;28;20224;-71
2022/08/22 09:48:12;;;;;;;8.30;3.70;;;;;;;;;;4983741;28;20230;-71
2022/08/22 09:51:03;;;;;;;8.37;3.50;;;;;;;;;;5021314;28;20208;-67
2022/08/22 09:54:14;;;;;;;7.50;3.70;;;;;;;;;;5078924;28;20201;-69
2022/08/22 09:57:04;;;;;;;4.83;3.20;;;;;;;;;;5079074;28;20209;-68
2022/08/22 09:59:51;;;;;;;5.57;3.13;;;;;;;;;;5081872;28;20203;-69
2022/08/22 10:02:44;;;;;;;4.97;3.20;;;;;;;;;;5055650;28;20242;-67
2022/08/22 10:05:30;;;;;;;7.70;3.40;;;;;;;;;;5063942;28;20214;-67
2022/08/22 10:08:34;;;;;;;7.00;3.57;;;;;;;;;;5045266;28;20541;-68
2022/08/22 10:11:21;;;;;;;7.47;3.60;;;;;;;;;;5048415;28;20190;-68
2022/08/22 10:14:09;;;;;;;6.70;3.17;;;;;;;;;;5063617;28;20225;-68
2022/08/22 10:17:18;;;;;;;4.60;3.13;;;;;;;;;;5052028;28;20205;-65
2022/08/22 10:20:14;;;;;;;6.27;3.37;;;;;;;;;;5060311;28;20228;-66
2022/08/22 10:22:48;;;;;;;8.37;3.87;;;;;;;;;;5061989;28;20200;-67
2022/08/22 10:25:33;;;;;;;7.03;3.57;;;;;;;;;;5043439;28;20193;-64
2022/08/22 10:28:20;;;;;;;5.43;2.70;;;;;;;;;;5062033;28;20666;-64
2022/08/22 10:31:24;;;;;;;5.60;3.20;;;;;;;;;;5063088;28;20221;-65
2022/08/22 10:34:03;;;;;;;7.13;3.17;;;;;;;;;;5047887;28;20638;-65
2022/08/22 10:36:49;;;;;;;5.47;3.03;;;;;;;;;;5066452;28;20239;-64
2022/08/22 10:39:27;;;;;;;9.07;3.00;;;;;;;;;;5068939;28;20200;-64
2022/08/22 10:42:08;;;;;;;6.37;3.07;;;;;;;;;;5039641;28;20730;-67
2022/08/22 10:44:40;;;;;;;7.30;2.97;;;;;;;;;;5061958;28;20765;-67
2022/08/22 10:47:16;;;;;;;6.13;2.70;;;;;;;;;;5055977;28;20792;-65
2022/08/22 10:50:17;;;;;;;7.40;3.17;;;;;;;;;;5061643;28;20202;-65
2022/08/22 10:53:32;;;;;;;9.53;2.77;;;;;;;;;;5058263;28;20793;-68
2022/08/22 10:56:22;;;;;;;6.53;2.40;;;;;;;;;;5068875;28;20197;-68
2022/08/22 10:59:04;;;;;;;7.60;3.03;;;;;;;;;;5056085;28;20905;-69
2022/08/22 11:01:39;;;;;;;3.87;2.40;;;;;;;;;;5064356;28;20291;-68
2022/08/22 11:04:18;;;;;;;7.73;2.00;;;;;;;;;;5055776;28;20686;-69
2022/08/22 11:07:16;;;;;;;5.20;2.00;;;;;;;;;;5052291;28;20191;-67
2022/08/22 11:09:53;;;;;;;5.07;2.53;;;;;;;;;;5061235;28;20255;-70
2022/08/22 11:12:37;;;;;;;4.03;2.23;;;;;;;;;;5045190;28;20197;-68
2022/08/22 11:15:09;;;;;;;5.17;2.00;;;;;;;;;;5059654;28;20580;-69
2022/08/22 11:17:59;;;;;;;4.60;2.23;;;;;;;;;;5052303;28;20330;-70
2022/08/22 11:21:02;;;;;;;3.33;2.13;;;;;;;;;;5066096;28;20213;-68
2022/08/22 11:23:41;;;;;;;4.60;2.20;;;;;;;;;;5062454;28;20204;-69
2022/08/22 11:26:29;;;;;;;3.80;2.23;;;;;;;;;;5063209;28;20264;-67
2022/08/22 11:29:31;;;;;;;3.73;2.00;;;;;;;;;;5057945;28;20224;-70
2022/08/22 11:32:25;;;;;;;4.53;1.90;;;;;;;;;;5058793;28;20205;-71
2022/08/22 11:35:02;;;;;;;4.00;2.10;;;;;;;;;;5056029;28;20193;-70
2022/08/22 11:37:43;;;;;;;3.10;1.87;;;;;;;;;;5049392;28;20197;-69
2022/08/22 11:40:32;;;;;;;2.80;1.80;;;;;;;;;;5066800;28;20802;-71
2022/08/22 11:43:11;;;;;;;3.13;1.60;;;;;;;;;;5056540;28;20197;-70
2022/08/22 11:45:51;;;;;;;2.90;1.80;;;;;;;;;;5064759;28;20670;-70
2022/08/22 11:48:25;;;;;;;2.87;1.53;;;;;;;;;;5038279;28;20504;-70
2022/08/22 11:51:05;;;;;;;4.60;1.80;;;;;;;;;;5057507;28;20197;-69
2022/08/22 11:53:40;;;;;;;2.00;1.47;;;;;;;;;;5050407;28;20814;-69
2022/08/22 11:56:28;;;;;;;1.97;1.40;;;;;;;;;;5065744;28;20197;-70
2022/08/22 11:59:09;;;;;;;2.10;1.80;;;;;;;;;;5067827;28;20189;-68
2022/08/22 12:01:51;;;;;;;3.07;1.87;;;;;;;;;;5050228;28;20232;-70
2022/08/22 12:04:31;;;;;;;3.70;1.87;;;;;;;;;;5063264;28;20771;-68
2022/08/22 12:07:20;;;;;;;2.57;1.70;;;;;;;;;;5061158;28;20800;-70
2022/08/22 12:10:14;;;;;;;2.67;1.60;;;;;;;;;;5052603;28;20674;-69
2022/08/22 12:12:59;;;;;;;2.47;1.60;;;;;;;;;;5038475;28;20214;-67
2022/08/22 12:15:50;;;;;;;2.80;1.80;;;;;;;;;;5057733;28;20224;-67
2022/08/22 12:18:31;;;;;;;2.23;1.60;;;;;;;;;;5058152;28;20233;-69
2022/08/22 12:21:15;;;;;;;2.60;1.50;;;;;;;;;;5066158;28;20652;-68
2022/08/22 12:23:47;;;;;;;2.00;1.40;;;;;;;;;;5060896;28;20230;-70
2022/08/22 12:26:40;;;;;;;3.53;1.47;;;;;;;;;;5067632;28;20193;-71
2022/08/22 12:29:26;;;;;;;3.77;1.70;;;;;;;;;;5062122;28;20272;-69
2022/08/22 12:32:19;;;;;;;1.90;1.50;;;;;;;;;;5060817;28;20229;-69
2022/08/22 12:35:14;;;;;;;3.87;1.97;;;;;;;;;;5049364;28;20205;-69
2022/08/22 12:38:05;;;;;;;2.30;1.40;;;;;;;;;;5066475;28;20730;-69
2022/08/22 12:41:13;;;;;;;2.10;1.23;;;;;;;;;;5064620;28;20225;-68
2022/08/22 12:44:20;;;;;;;2.93;1.60;;;;;;;;;;5064181;28;20205;-68
2022/08/22 12:47:18;;;;;;;1.93;1.67;;;;;;;;;;5049473;28;20196;-68
2022/08/22 12:50:05;;;;;;;1.87;1.50;;;;;;;;;;5063452;28;20268;-69
2022/08/22 12:52:48;;;;;;;1.93;1.70;;;;;;;;;;5059052;28;20220;-69
2022/08/22 12:55:54;;;;;;;2.17;1.57;;;;;;;;;;5066070;28;20197;-69
2022/08/22 12:58:42;;;;;;;2.33;1.57;;;;;;;;;;5040290;28;20832;-70
2022/08/22 13:01:19;;;;;;;3.43;1.57;;;;;;;;;;5040002;28;20223;-70
2022/08/22 13:04:04;;;;;;;1.67;1.30;;;;;;;;;;5029714;28;20198;-70
2022/08/22 13:06:39;;;;;;;2.13;1.47;;;;;;;;;;5043250;28;20697;-70
2022/08/22 13:09:30;;;;;;;2.53;1.37;;;;;;;;;;5043825;28;20282;-69
2022/08/22 13:12:03;;;;;;;5.63;1.30;;;;;;;;;;5029817;28;20253;-73
2022/08/22 13:14:33;;;;;;;4.50;1.53;;;;;;;;;;5042772;28;20199;-70
2022/08/22 13:17:07;;;;;;;3.37;1.80;;;;;;;;;;5029106;28;20217;-70
2022/08/22 13:20:07;;;;;;;4.27;1.70;;;;;;;;;;5053215;28;20220;-71
2022/08/22 13:22:41;;;;;;;2.33;1.33;;;;;;;;;;5015407;28;20599;-68
2022/08/22 13:25:23;;;;;;;3.87;1.50;;;;;;;;;;5030854;28;20723;-69
2022/08/22 13:27:59;;;;;;;1.97;1.57;;;;;;;;;;5051339;28;20190;-69
2022/08/22 13:30:36;;;;;;;3.63;1.67;;;;;;;;;;5044620;28;20268;-71
2022/08/22 13:33:21;;;;;;;3.10;1.53;;;;;;;;;;5031435;28;20206;-72
2022/08/22 13:35:58;;;;;;;3.27;1.50;;;;;;;;;;5015415;28;20186;-72
2022/08/22 13:38:34;;;;;;;3.17;1.70;;;;;;;;;;5025307;28;20711;-72
2022/08/22 13:41:29;;;;;;;3.13;1.60;;;;;;;;;;5044075;28;20324;-70
2022/08/22 13:44:06;;;;;;;2.13;1.70;;;;;;;;;;5044182;28;20206;-69
2022/08/22 13:46:36;;;;;;;3.83;1.97;;;;;;;;;;5031208;28;20202;-70
2022/08/22 13:49:55;;;;;;;3.90;1.90;;;;;;;;;;5040893;28;20183;-69
2022/08/22 13:52:38;;;;;;;3.30;2.00;;;;;;;;;;5013091;28;20202;-72
2022/08/22 13:55:17;;;;;;;5.10;1.80;;;;;;;;;;5043779;28;20290;-65
2022/08/22 13:58:01;;;;;;;5.77;1.80;;;;;;;;;;5035763;28;20198;-65
2022/08/22 14:00:56;;;;;;;7.13;1.93;;;;;;;;;;5032163;28;20186;-66
2022/08/22 14:03:39;;;;;;;4.13;2.17;;;;;;;;;;5059424;28;20217;-66
2022/08/22 14:06:30;;;;;;;3.93;2.10;;;;;;;;;;5042628;28;20650;-67
2022/08/22 14:09:15;;;;;;;4.07;1.93;;;;;;;;;;5041559;28;20193;-69
2022/08/22 14:12:13;;;;;;;4.17;1.90;;;;;;;;;;5059425;28;20196;-69
2022/08/22 14:14:47;;;;;;;4.10;2.17;;;;;;;;;;5065351;28;20185;-68
2022/08/22 14:17:22;;;;;;;4.70;2.37;;;;;;;;;;5061653;28;20831;-68
2022/08/22 14:20:21;;;;;;;6.77;1.97;;;;;;;;;;5052531;28;20277;-67
2022/08/22 14:23:07;;;;;;;3.87;2.00;;;;;;;;;;5059144;28;20221;-69
2022/08/22 14:25:40;;;;;;;3.37;2.00;;;;;;;;;;5046581;28;20204;-66
2022/08/22 14:28:31;;;;;;;5.40;2.20;;;;;;;;;;5057167;28;20280;-67
2022/08/22 14:31:13;;;;;;;5.20;2.37;;;;;;;;;;5066082;28;20197;-65
2022/08/22 14:34:14;;;;;;;4.13;2.20;;;;;;;;;;5055651;28;20220;-68
2022/08/22 14:36:49;;;;;;;5.40;2.57;;;;;;;;;;5053919;28;20215;-68
2022/08/22 14:39:29;;;;;;;4.30;2.00;;;;;;;;;;5046150;28;20256;-68
2022/08/22 14:42:19;;;;;;;2.87;1.90;;;;;;;;;;5029526;28;20288;-68
2022/08/22 14:45:04;;;;;;;5.03;2.33;;;;;;;;;;5063374;28;20272;-69
2022/08/22 14:47:52;;;;;;;6.23;2.47;;;;;;;;;;5065162;28;20190;-70
2022/08/22 14:50:55;;;;;;;7.23;2.30;;;;;;;;;;5064946;28;20221;-70
2022/08/22 14:53:29;;;;;;;6.07;2.47;;;;;;;;;;5059077;28;20223;-70
2022/08/22 14:55:59;;;;;;;7.25;2.33;;;;;;;;;;5062339;28;20787;-69
2022/08/22 14:58:32;;;;;;;2.73;2.00;;;;;;;;;;5041938;28;20697;-69
2022/08/22 15:01:10;;;;;;;5.80;1.80;;;;;;;;;;5023633;28;20223;-69
2022/08/22 15:03:43;;;;;;;2.90;1.80;;;;;;;;;;5043020;28;20193;-68
2022/08/22 15:06:16;;;;;;;4.00;1.90;;;;;;;;;;5037487;28;20844;-69
2022/08/22 15:08:53;;;;;;;4.00;1.80;;;;;;;;;;5030648;28;20193;-68
2022/08/22 15:11:31;;;;;;;3.27;1.80;;;;;;;;;;5039459;28;20195;-69
2022/08/22 15:14:06;;;;;;;4.37;1.80;;;;;;;;;;5035059;28;20252;-69
2022/08/22 15:16:44;;;;;;;3.97;2.07;;;;;;;;;;5040110;28;20210;-68
2022/08/22 15:19:22;;;;;;;3.07;1.90;;;;;;;;;;5029728;28;20232;-68
2022/08/22 15:21:50;;;;;;;3.40;1.90;;;;;;;;;;5042050;28;20535;-68
2022/08/22 15:24:22;;;;;;;3.90;1.87;;;;;;;;;;5019287;28;20718;-68
2022/08/22 15:26:55;;;;;;;1.93;1.63;;;;;;;;;;5030884;28;20224;-69
2022/08/22 15:29:31;;;;;;;3.40;1.87;;;;;;;;;;5037025;28;20203;-69
2022/08/22 15:32:06;;;;;;;3.00;1.70;;;;;;;;;;5057615;28;20190;-68
2022/08/22 15:34:48;;;;;;;3.60;1.97;;;;;;;;;;5025682;28;20208;-68
2022/08/22 15:37:20;;;;;;;3.17;1.63;;;;;;;;;;5029157;28;20194;-68
2022/08/22 15:40:08;;;;;;;4.00;1.90;;;;;;;;;;5045657;28;20206;-68
2022/08/22 15:42:46;;;;;;;6.50;2.30;;;;;;;;;;5045471;28;20639;-71
2022/08/22 15:45:37;;;;;;;4.70;2.47;;;;;;;;;;5046246;28;20198;-71
2022/08/22 15:48:29;;;;;;;4.13;2.30;;;;;;;;;;5023933;28;20244;-71
2022/08/22 15:51:03;;;;;;;4.93;2.17;;;;;;;;;;5049241;28;20690;-69
2022/08/22 15:54:17;;;;;;;5.20;1.93;;;;;;;;;;5034168;28;20804;-69
2022/08/22 15:56:52;;;;;;;6.27;2.27;;;;;;;;;;5046764;28;20249;-70
2022/08/22 15:59:34;;;;;;;3.00;2.10;;;;;;;;;;5032731;28;20240;-70
2022/08/22 16:02:24;;;;;;;4.87;2.23;;;;;;;;;;5061019;28;20237;-69
2022/08/22 16:05:05;;;;;;;3.73;2.10;;;;;;;;;;5058654;28;20636;-69
2022/08/22 16:08:02;;;;;;;5.63;2.40;;;;;;;;;;5055243;28;20532;-69
2022/08/22 16:10:40;;;;;;;5.60;2.40;;;;;;;;;;5050913;28;20205;-68
2022/08/22 16:13:29;;;;;;;3.63;2.10;;;;;;;;;;5062710;28;20198;-68
2022/08/22 16:16:07;;;;;;;5.57;2.37;;;;;;;;;;5062211;28;20204;-69
2022/08/22 16:18:42;;;;;;;6.47;2.60;;;;;;;;;;5068034;28;20220;-69
2022/08/22 16:21:12;;;;;;;4.50;2.00;;;;;;;;;;5048749;28;20203;-69
2022/08/22 16:26:32;;;;;;;5.57;2.60;;;;;;;;;;5063406;28;20702;-71
2022/08/22 16:29:12;;;;;;;4.63;2.03;;;;;;;;;;5059872;28;20662;-71